Terminal Aerodrome Forecast
Issued by NWS St Louis, MO

Home | Current Version | Previous Version | Text Only | Print | Product List | Glossary On
Versions: 1 2 3 4 5 6 7 8 9 10 11 12 13 14 15 16 17 18 19 20 21 22 23 24 25
000
FTUS43 KLSX 190900 AAA
TAFCOU
TAF AMD
KCOU 190910Z 1909/2006 09004KT 2SM BR OVC005
     FM191800 12005KT 5SM BR OVC007
     FM192200 11004KT P6SM OVC010=

USA.gov is the U.S. government's official web portal to all federal, state and local government web resources and services.